Fairmont, MN

10:21 AM CST on February 14, 2016 (GMT -0600)
FudgeHome | | Change Station
CLOSE
Current Station
Personal Weather Station
Location: Fairmont, MN
Elevation: 1178 ft
Nearby Weather Stations

Elev 1178 ft 43.67 °N, 94.47 °W | Updated 5 minutes ago

Overcast
Overcast
18.0 °F
Feels Like 7 °F
N
9.4
Wind Variable Wind from SE

Today
High -- | Low -- °F
--% Chance of Precip.
Yesterday
High -- | Low -- °F
Precip. -- in
Pressure 29.91 in
Visibility 2.0 miles
Clouds Mostly Cloudy 2000 ft
Overcast 6500 ft
Windchill 7 °F
Dew Point 17 °F
Humidity 95%
Rainfall 0.00 in
Snow Depth Not available.
7:18 AM 5:46 PM
Waxing Crescent, 43% visible
METAR KFRM 141615Z AUTO 15018G23KT 2SM BKN020 OVC065 M09/M12 A2991 RMK AO1
Pressure 29.91 in
Visibility 2.0 miles
Clouds Mostly Cloudy 2000 ft
Overcast 6500 ft
Windchill 7 °F
Dew Point 17 °F
Humidity 95%
Rainfall 0.00 in
Snow Depth Not available.
7:18 AM 5:46 PM
Waxing Crescent, 43% visible
METAR KFRM 141615Z AUTO 15018G23KT 2SM BKN020 OVC065 M09/M12 A2991 RMK AO1

10-Day Weather Forecast

Almanac

Astronomy

Feb. 14, 2016 Rise Set
Actual Time
Civil Twilight
Nautical Twilight
Astronomical Twilight
Moon
Length of Visible Light
Length of Day
Tomorrow will be .
, % of the Moon is Illuminated

Today's Extremes

State Highs State Lows

Community

WunderPhotos

Upload Photos

1,892,829 photos uploaded!

WunderBlog® & News

Nearby

Air Quality

  Air Quality AQ Index Pollutant
Not available.

Snow Depth

Station Depth Elevation

Earthquake Activity

City Distance Mag. Time & Date
Minimum magnitude displayed is 2.5.

Coastal Water Temperatures

Place Temperature

Stations

Nearby Weather Stations

Station Location Temp. Windchill Dew Point Humidity Wind Precip. Elev Updated Type
                   

Watches & Warnings

There are currently no watches in effect.